sensor_id;sensor_type;location;lat;lon;timestamp;temperature;humidity
4215;DHT22;2121;48.062;7.850;2023-08-07T00:00:46;13.30;99.90
4215;DHT22;2121;48.062;7.850;2023-08-07T00:03:12;13.40;99.90
4215;DHT22;2121;48.062;7.850;2023-08-07T00:05:45;13.40;99.90
4215;DHT22;2121;48.062;7.850;2023-08-07T00:08:12;13.40;99.90
4215;DHT22;2121;48.062;7.850;2023-08-07T00:10:37;13.30;99.90
4215;DHT22;2121;48.062;7.850;2023-08-07T00:13:03;13.30;99.90
4215;DHT22;2121;48.062;7.850;2023-08-07T00:15:29;13.30;99.90
4215;DHT22;2121;48.062;7.850;2023-08-07T00:17:55;13.30;99.90
4215;DHT22;2121;48.062;7.850;2023-08-07T00:20:21;13.40;99.90
4215;DHT22;2121;48.062;7.850;2023-08-07T00:22:47;13.50;99.90
4215;DHT22;2121;48.062;7.850;2023-08-07T00:25:12;13.40;99.90
4215;DHT22;2121;48.062;7.850;2023-08-07T00:27:38;13.30;99.90
4215;DHT22;2121;48.062;7.850;2023-08-07T00:30:04;13.30;99.90
4215;DHT22;2121;48.062;7.850;2023-08-07T00:32:30;13.30;99.90
4215;DHT22;2121;48.062;7.850;2023-08-07T00:34:56;13.20;99.90
4215;DHT22;2121;48.062;7.850;2023-08-07T00:37:22;13.20;99.90
4215;DHT22;2121;48.062;7.850;2023-08-07T00:39:47;13.20;99.90
4215;DHT22;2121;48.062;7.850;2023-08-07T00:42:13;13.20;99.90
4215;DHT22;2121;48.062;7.850;2023-08-07T00:44:39;13.20;99.90
4215;DHT22;2121;48.062;7.850;2023-08-07T00:47:05;13.20;99.90
4215;DHT22;2121;48.062;7.850;2023-08-07T00:49:32;13.20;99.90
4215;DHT22;2121;48.062;7.850;2023-08-07T00:51:58;13.20;99.90
4215;DHT22;2121;48.062;7.850;2023-08-07T00:54:25;13.20;99.90
4215;DHT22;2121;48.062;7.850;2023-08-07T00:56:51;13.20;99.90
4215;DHT22;2121;48.062;7.850;2023-08-07T00:59:18;13.10;99.90
4215;DHT22;2121;48.062;7.850;2023-08-07T01:01:44;13.20;99.90
4215;DHT22;2121;48.062;7.850;2023-08-07T01:04:10;13.20;99.90
4215;DHT22;2121;48.062;7.850;2023-08-07T01:06:36;13.20;99.90
4215;DHT22;2121;48.062;7.850;2023-08-07T01:09:02;13.10;99.90
4215;DHT22;2121;48.062;7.850;2023-08-07T01:11:36;13.20;99.90
4215;DHT22;2121;48.062;7.850;2023-08-07T01:16:45;13.10;99.90
4215;DHT22;2121;48.062;7.850;2023-08-07T01:19:34;13.10;99.90
4215;DHT22;2121;48.062;7.850;2023-08-07T01:22:14;13.20;99.90
4215;DHT22;2121;48.062;7.850;2023-08-07T01:24:43;13.10;99.90
4215;DHT22;2121;48.062;7.850;2023-08-07T01:33:13;13.20;99.90
4215;DHT22;2121;48.062;7.850;2023-08-07T01:35:46;13.10;99.90
4215;DHT22;2121;48.062;7.850;2023-08-07T01:38:13;13.00;99.90
4215;DHT22;2121;48.062;7.850;2023-08-07T01:40:40;13.10;99.90
4215;DHT22;2121;48.062;7.850;2023-08-07T01:43:07;13.10;99.90
4215;DHT22;2121;48.062;7.850;2023-08-07T01:45:33;13.10;99.90
4215;DHT22;2121;48.062;7.850;2023-08-07T01:47:59;13.10;99.90
4215;DHT22;2121;48.062;7.850;2023-08-07T01:50:25;13.20;99.90
4215;DHT22;2121;48.062;7.850;2023-08-07T01:52:51;13.20;99.90
4215;DHT22;2121;48.062;7.850;2023-08-07T01:55:18;13.30;99.90
4215;DHT22;2121;48.062;7.850;2023-08-07T01:57:45;13.30;99.90
4215;DHT22;2121;48.062;7.850;2023-08-07T02:00:11;13.20;99.90
4215;DHT22;2121;48.062;7.850;2023-08-07T02:02:38;13.20;99.90
4215;DHT22;2121;48.062;7.850;2023-08-07T02:05:04;13.10;99.90
4215;DHT22;2121;48.062;7.850;2023-08-07T02:07:30;13.00;99.90
4215;DHT22;2121;48.062;7.850;2023-08-07T02:09:57;13.00;99.90
4215;DHT22;2121;48.062;7.850;2023-08-07T02:12:23;12.80;99.90
4215;DHT22;2121;48.062;7.850;2023-08-07T02:14:50;12.60;99.90
4215;DHT22;2121;48.062;7.850;2023-08-07T02:17:16;12.60;99.90
4215;DHT22;2121;48.062;7.850;2023-08-07T02:19:42;12.70;99.90
4215;DHT22;2121;48.062;7.850;2023-08-07T02:22:08;12.70;99.90
4215;DHT22;2121;48.062;7.850;2023-08-07T02:24:33;12.70;99.90
4215;DHT22;2121;48.062;7.850;2023-08-07T02:26:59;12.70;99.90
4215;DHT22;2121;48.062;7.850;2023-08-07T02:29:25;12.60;99.90
4215;DHT22;2121;48.062;7.850;2023-08-07T02:31:51;12.60;99.90
4215;DHT22;2121;48.062;7.850;2023-08-07T02:34:16;12.50;99.90
4215;DHT22;2121;48.062;7.850;2023-08-07T02:36:42;12.40;99.90
4215;DHT22;2121;48.062;7.850;2023-08-07T02:39:08;12.50;99.90
4215;DHT22;2121;48.062;7.850;2023-08-07T02:41:33;12.50;99.90
4215;DHT22;2121;48.062;7.850;2023-08-07T02:43:59;12.60;99.90
4215;DHT22;2121;48.062;7.850;2023-08-07T02:46:25;12.60;99.90
4215;DHT22;2121;48.062;7.850;2023-08-07T02:48:50;12.50;99.90
4215;DHT22;2121;48.062;7.850;2023-08-07T02:51:16;12.30;99.90
4215;DHT22;2121;48.062;7.850;2023-08-07T02:53:42;12.30;99.90
4215;DHT22;2121;48.062;7.850;2023-08-07T02:56:08;12.30;99.90
4215;DHT22;2121;48.062;7.850;2023-08-07T02:58:34;12.30;99.90
4215;DHT22;2121;48.062;7.850;2023-08-07T03:01:06;12.50;99.90
4215;DHT22;2121;48.062;7.850;2023-08-07T03:03:32;12.50;99.90
4215;DHT22;2121;48.062;7.850;2023-08-07T03:05:58;12.60;99.90
4215;DHT22;2121;48.062;7.850;2023-08-07T03:08:24;12.50;99.90
4215;DHT22;2121;48.062;7.850;2023-08-07T03:10:55;12.40;99.90
4215;DHT22;2121;48.062;7.850;2023-08-07T03:13:24;12.40;99.90
4215;DHT22;2121;48.062;7.850;2023-08-07T03:15:58;12.40;99.90
4215;DHT22;2121;48.062;7.850;2023-08-07T03:18:28;12.40;99.90
4215;DHT22;2121;48.062;7.850;2023-08-07T03:20:55;12.40;99.90
4215;DHT22;2121;48.062;7.850;2023-08-07T03:23:22;12.40;99.90
4215;DHT22;2121;48.062;7.850;2023-08-07T03:25:48;12.30;99.90
4215;DHT22;2121;48.062;7.850;2023-08-07T03:28:14;12.20;99.90
4215;DHT22;2121;48.062;7.850;2023-08-07T03:30:40;12.30;99.90
4215;DHT22;2121;48.062;7.850;2023-08-07T03:33:06;12.30;99.90
4215;DHT22;2121;48.062;7.850;2023-08-07T03:35:32;12.30;99.90
4215;DHT22;2121;48.062;7.850;2023-08-07T03:37:58;12.30;99.90
4215;DHT22;2121;48.062;7.850;2023-08-07T03:40:23;12.30;99.90
4215;DHT22;2121;48.062;7.850;2023-08-07T03:42:49;12.40;99.90
4215;DHT22;2121;48.062;7.850;2023-08-07T03:45:15;12.40;99.90
4215;DHT22;2121;48.062;7.850;2023-08-07T03:47:40;12.40;99.90
4215;DHT22;2121;48.062;7.850;2023-08-07T03:50:06;12.40;99.90
4215;DHT22;2121;48.062;7.850;2023-08-07T03:52:32;12.40;99.90
4215;DHT22;2121;48.062;7.850;2023-08-07T03:54:58;12.40;99.90
4215;DHT22;2121;48.062;7.850;2023-08-07T03:57:24;12.40;99.90
4215;DHT22;2121;48.062;7.850;2023-08-07T03:59:50;12.40;99.90
4215;DHT22;2121;48.062;7.850;2023-08-07T04:02:16;12.40;99.90
4215;DHT22;2121;48.062;7.850;2023-08-07T04:04:41;12.40;99.90
4215;DHT22;2121;48.062;7.850;2023-08-07T04:07:07;12.50;99.90
4215;DHT22;2121;48.062;7.850;2023-08-07T04:09:33;12.60;99.90
4215;DHT22;2121;48.062;7.850;2023-08-07T04:11:59;12.60;99.90
4215;DHT22;2121;48.062;7.850;2023-08-07T04:14:25;12.60;99.90
4215;DHT22;2121;48.062;7.850;2023-08-07T04:16:51;12.60;99.90
4215;DHT22;2121;48.062;7.850;2023-08-07T04:19:17;12.70;99.90
4215;DHT22;2121;48.062;7.850;2023-08-07T04:21:42;12.70;99.90
4215;DHT22;2121;48.062;7.850;2023-08-07T04:24:08;12.70;99.90
4215;DHT22;2121;48.062;7.850;2023-08-07T04:26:37;12.80;99.90
4215;DHT22;2121;48.062;7.850;2023-08-07T04:29:03;12.80;99.90
4215;DHT22;2121;48.062;7.850;2023-08-07T04:31:29;12.80;99.90
4215;DHT22;2121;48.062;7.850;2023-08-07T04:33:58;12.80;99.90
4215;DHT22;2121;48.062;7.850;2023-08-07T04:36:24;12.80;99.90
4215;DHT22;2121;48.062;7.850;2023-08-07T04:38:50;12.90;99.90
4215;DHT22;2121;48.062;7.850;2023-08-07T04:41:16;13.00;99.90
4215;DHT22;2121;48.062;7.850;2023-08-07T04:43:42;13.00;99.90
4215;DHT22;2121;48.062;7.850;2023-08-07T04:46:09;13.00;99.90
4215;DHT22;2121;48.062;7.850;2023-08-07T04:48:35;12.90;99.90
4215;DHT22;2121;48.062;7.850;2023-08-07T04:51:02;12.90;99.90
4215;DHT22;2121;48.062;7.850;2023-08-07T04:53:28;12.90;99.90
4215;DHT22;2121;48.062;7.850;2023-08-07T04:55:53;12.90;99.90
4215;DHT22;2121;48.062;7.850;2023-08-07T04:58:19;12.90;99.90
4215;DHT22;2121;48.062;7.850;2023-08-07T05:00:45;12.90;99.90
4215;DHT22;2121;48.062;7.850;2023-08-07T05:03:11;12.90;99.90
4215;DHT22;2121;48.062;7.850;2023-08-07T05:05:36;12.90;99.90
4215;DHT22;2121;48.062;7.850;2023-08-07T05:08:02;12.90;99.90
4215;DHT22;2121;48.062;7.850;2023-08-07T05:10:28;12.90;99.90
4215;DHT22;2121;48.062;7.850;2023-08-07T05:12:53;12.90;99.90
4215;DHT22;2121;48.062;7.850;2023-08-07T05:15:22;12.90;99.90
4215;DHT22;2121;48.062;7.850;2023-08-07T05:17:48;12.90;99.90
4215;DHT22;2121;48.062;7.850;2023-08-07T05:20:15;12.90;99.90
4215;DHT22;2121;48.062;7.850;2023-08-07T05:22:40;12.90;99.90
4215;DHT22;2121;48.062;7.850;2023-08-07T05:25:06;12.90;99.90
4215;DHT22;2121;48.062;7.850;2023-08-07T05:27:34;12.90;99.90
4215;DHT22;2121;48.062;7.850;2023-08-07T05:30:00;12.80;99.90
4215;DHT22;2121;48.062;7.850;2023-08-07T05:32:27;12.80;99.90
4215;DHT22;2121;48.062;7.850;2023-08-07T05:34:53;12.70;99.90
4215;DHT22;2121;48.062;7.850;2023-08-07T05:37:19;12.60;99.90
4215;DHT22;2121;48.062;7.850;2023-08-07T05:39:45;12.50;99.90
4215;DHT22;2121;48.062;7.850;2023-08-07T05:42:10;12.50;99.90
4215;DHT22;2121;48.062;7.850;2023-08-07T05:44:37;12.50;99.90
4215;DHT22;2121;48.062;7.850;2023-08-07T05:47:03;12.50;99.90
4215;DHT22;2121;48.062;7.850;2023-08-07T05:49:29;12.60;99.90
4215;DHT22;2121;48.062;7.850;2023-08-07T05:51:55;12.70;99.90
4215;DHT22;2121;48.062;7.850;2023-08-07T05:54:21;12.80;99.90
4215;DHT22;2121;48.062;7.850;2023-08-07T05:56:47;12.90;99.90
4215;DHT22;2121;48.062;7.850;2023-08-07T05:59:13;13.00;99.90
4215;DHT22;2121;48.062;7.850;2023-08-07T06:01:38;13.10;99.90
4215;DHT22;2121;48.062;7.850;2023-08-07T06:04:06;13.20;99.90
4215;DHT22;2121;48.062;7.850;2023-08-07T06:06:32;13.20;99.90
4215;DHT22;2121;48.062;7.850;2023-08-07T06:09:00;13.40;99.90
4215;DHT22;2121;48.062;7.850;2023-08-07T06:11:26;13.50;99.90
4215;DHT22;2121;48.062;7.850;2023-08-07T06:13:52;13.60;99.90
4215;DHT22;2121;48.062;7.850;2023-08-07T06:16:18;13.60;99.90
4215;DHT22;2121;48.062;7.850;2023-08-07T06:18:44;13.70;99.90
4215;DHT22;2121;48.062;7.850;2023-08-07T06:21:09;13.80;99.90
4215;DHT22;2121;48.062;7.850;2023-08-07T06:23:37;13.90;99.90
4215;DHT22;2121;48.062;7.850;2023-08-07T06:26:02;13.90;99.90
4215;DHT22;2121;48.062;7.850;2023-08-07T06:28:32;13.90;99.90
4215;DHT22;2121;48.062;7.850;2023-08-07T06:31:05;13.90;99.90
4215;DHT22;2121;48.062;7.850;2023-08-07T06:33:32;13.80;99.90
4215;DHT22;2121;48.062;7.850;2023-08-07T06:36:01;13.90;99.90
4215;DHT22;2121;48.062;7.850;2023-08-07T06:38:28;13.90;99.90
4215;DHT22;2121;48.062;7.850;2023-08-07T06:40:53;13.70;99.90
4215;DHT22;2121;48.062;7.850;2023-08-07T06:43:19;13.70;99.90
4215;DHT22;2121;48.062;7.850;2023-08-07T06:45:53;13.70;99.90
4215;DHT22;2121;48.062;7.850;2023-08-07T06:48:19;13.70;99.90
4215;DHT22;2121;48.062;7.850;2023-08-07T06:50:49;13.80;99.90
4215;DHT22;2121;48.062;7.850;2023-08-07T06:53:16;13.80;99.90
4215;DHT22;2121;48.062;7.850;2023-08-07T06:55:42;13.80;99.90
4215;DHT22;2121;48.062;7.850;2023-08-07T06:58:08;13.80;99.90
4215;DHT22;2121;48.062;7.850;2023-08-07T07:00:35;13.70;99.90
4215;DHT22;2121;48.062;7.850;2023-08-07T07:03:02;13.80;99.90
4215;DHT22;2121;48.062;7.850;2023-08-07T07:05:28;13.80;99.90
4215;DHT22;2121;48.062;7.850;2023-08-07T07:07:54;13.80;99.90
4215;DHT22;2121;48.062;7.850;2023-08-07T07:10:20;13.90;99.90
4215;DHT22;2121;48.062;7.850;2023-08-07T07:12:46;14.00;99.90
4215;DHT22;2121;48.062;7.850;2023-08-07T07:15:12;14.10;99.90
4215;DHT22;2121;48.062;7.850;2023-08-07T07:17:38;14.10;99.90
4215;DHT22;2121;48.062;7.850;2023-08-07T07:20:04;14.20;99.90
4215;DHT22;2121;48.062;7.850;2023-08-07T07:22:30;14.20;99.90
4215;DHT22;2121;48.062;7.850;2023-08-07T07:24:56;14.10;99.90
4215;DHT22;2121;48.062;7.850;2023-08-07T07:27:22;14.00;99.90
4215;DHT22;2121;48.062;7.850;2023-08-07T07:29:48;14.00;99.90
4215;DHT22;2121;48.062;7.850;2023-08-07T07:32:14;14.10;99.90
4215;DHT22;2121;48.062;7.850;2023-08-07T07:34:40;14.20;99.90
4215;DHT22;2121;48.062;7.850;2023-08-07T07:37:05;14.20;99.90
4215;DHT22;2121;48.062;7.850;2023-08-07T07:39:31;14.40;99.90
4215;DHT22;2121;48.062;7.850;2023-08-07T07:41:57;14.50;99.90
4215;DHT22;2121;48.062;7.850;2023-08-07T07:44:23;14.40;99.90
4215;DHT22;2121;48.062;7.850;2023-08-07T07:46:48;14.30;99.90
4215;DHT22;2121;48.062;7.850;2023-08-07T07:49:14;14.40;99.90
4215;DHT22;2121;48.062;7.850;2023-08-07T07:51:40;14.50;99.90
4215;DHT22;2121;48.062;7.850;2023-08-07T07:54:06;14.50;99.90
4215;DHT22;2121;48.062;7.850;2023-08-07T07:56:32;14.60;99.90
4215;DHT22;2121;48.062;7.850;2023-08-07T07:58:57;14.90;99.90
4215;DHT22;2121;48.062;7.850;2023-08-07T08:01:23;15.00;99.90
4215;DHT22;2121;48.062;7.850;2023-08-07T08:03:49;15.10;99.90
4215;DHT22;2121;48.062;7.850;2023-08-07T08:06:15;15.10;99.90
4215;DHT22;2121;48.062;7.850;2023-08-07T08:08:41;15.00;99.90
4215;DHT22;2121;48.062;7.850;2023-08-07T08:11:08;15.00;99.90
4215;DHT22;2121;48.062;7.850;2023-08-07T08:13:34;15.10;99.90
4215;DHT22;2121;48.062;7.850;2023-08-07T08:16:04;15.10;99.90
4215;DHT22;2121;48.062;7.850;2023-08-07T08:18:30;15.00;99.90
4215;DHT22;2121;48.062;7.850;2023-08-07T08:20:56;14.90;99.90
4215;DHT22;2121;48.062;7.850;2023-08-07T08:23:21;14.80;99.90
4215;DHT22;2121;48.062;7.850;2023-08-07T08:25:48;14.60;99.90
4215;DHT22;2121;48.062;7.850;2023-08-07T08:28:14;14.30;99.90
4215;DHT22;2121;48.062;7.850;2023-08-07T08:30:41;14.00;99.90
4215;DHT22;2121;48.062;7.850;2023-08-07T08:33:07;13.80;99.90
4215;DHT22;2121;48.062;7.850;2023-08-07T08:35:36;13.70;99.90
4215;DHT22;2121;48.062;7.850;2023-08-07T08:38:02;13.40;99.90
4215;DHT22;2121;48.062;7.850;2023-08-07T08:40:29;13.50;99.90
4215;DHT22;2121;48.062;7.850;2023-08-07T08:42:56;13.60;99.90
4215;DHT22;2121;48.062;7.850;2023-08-07T08:45:26;13.70;99.90
4215;DHT22;2121;48.062;7.850;2023-08-07T08:47:55;13.80;99.90
4215;DHT22;2121;48.062;7.850;2023-08-07T08:50:26;14.00;99.90
4215;DHT22;2121;48.062;7.850;2023-08-07T08:52:53;14.00;99.90
4215;DHT22;2121;48.062;7.850;2023-08-07T08:55:21;14.10;99.90
4215;DHT22;2121;48.062;7.850;2023-08-07T08:57:47;14.00;99.90
4215;DHT22;2121;48.062;7.850;2023-08-07T09:00:14;14.00;99.90
4215;DHT22;2121;48.062;7.850;2023-08-07T09:02:44;14.10;99.90
4215;DHT22;2121;48.062;7.850;2023-08-07T09:05:10;14.30;99.90
4215;DHT22;2121;48.062;7.850;2023-08-07T09:07:37;14.60;99.90
4215;DHT22;2121;48.062;7.850;2023-08-07T09:10:03;14.70;99.90
4215;DHT22;2121;48.062;7.850;2023-08-07T09:12:32;14.80;99.90
4215;DHT22;2121;48.062;7.850;2023-08-07T09:14:58;14.90;99.90
4215;DHT22;2121;48.062;7.850;2023-08-07T09:17:28;15.00;99.90
4215;DHT22;2121;48.062;7.850;2023-08-07T09:19:55;15.40;99.90
4215;DHT22;2121;48.062;7.850;2023-08-07T09:22:21;15.60;99.90
4215;DHT22;2121;48.062;7.850;2023-08-07T09:24:47;15.80;99.90
4215;DHT22;2121;48.062;7.850;2023-08-07T09:27:13;16.20;99.90
4215;DHT22;2121;48.062;7.850;2023-08-07T09:29:46;16.40;99.90
4215;DHT22;2121;48.062;7.850;2023-08-07T09:32:12;16.60;99.90
4215;DHT22;2121;48.062;7.850;2023-08-07T09:34:42;16.80;99.90
4215;DHT22;2121;48.062;7.850;2023-08-07T09:37:08;16.70;99.90
4215;DHT22;2121;48.062;7.850;2023-08-07T09:39:36;16.80;99.90
4215;DHT22;2121;48.062;7.850;2023-08-07T09:42:05;17.00;99.90
4215;DHT22;2121;48.062;7.850;2023-08-07T09:44:37;17.40;99.90
4215;DHT22;2121;48.062;7.850;2023-08-07T09:47:17;17.40;99.90
4215;DHT22;2121;48.062;7.850;2023-08-07T09:49:44;17.50;99.90
4215;DHT22;2121;48.062;7.850;2023-08-07T09:52:14;17.50;99.90
4215;DHT22;2121;48.062;7.850;2023-08-07T09:54:40;17.90;99.90
4215;DHT22;2121;48.062;7.850;2023-08-07T09:57:07;18.20;99.90
4215;DHT22;2121;48.062;7.850;2023-08-07T09:59:33;18.10;99.90
4215;DHT22;2121;48.062;7.850;2023-08-07T10:02:01;17.80;99.90
4215;DHT22;2121;48.062;7.850;2023-08-07T10:04:28;17.30;99.90
4215;DHT22;2121;48.062;7.850;2023-08-07T10:06:55;16.50;99.90
4215;DHT22;2121;48.062;7.850;2023-08-07T10:09:21;16.30;99.90
4215;DHT22;2121;48.062;7.850;2023-08-07T10:11:49;16.00;99.90
4215;DHT22;2121;48.062;7.850;2023-08-07T10:14:15;15.90;99.90
4215;DHT22;2121;48.062;7.850;2023-08-07T10:16:42;15.90;99.90
4215;DHT22;2121;48.062;7.850;2023-08-07T10:19:09;16.10;99.90
4215;DHT22;2121;48.062;7.850;2023-08-07T10:21:36;16.10;99.90
4215;DHT22;2121;48.062;7.850;2023-08-07T10:24:04;16.20;99.90
4215;DHT22;2121;48.062;7.850;2023-08-07T10:26:33;16.40;99.90
4215;DHT22;2121;48.062;7.850;2023-08-07T10:29:02;16.70;99.90
4215;DHT22;2121;48.062;7.850;2023-08-07T10:31:31;17.20;99.90
4215;DHT22;2121;48.062;7.850;2023-08-07T10:33:59;17.70;99.90
4215;DHT22;2121;48.062;7.850;2023-08-07T10:36:35;18.30;99.90
4215;DHT22;2121;48.062;7.850;2023-08-07T10:39:09;18.90;99.90
4215;DHT22;2121;48.062;7.850;2023-08-07T10:41:45;19.50;99.90
4215;DHT22;2121;48.062;7.850;2023-08-07T10:44:21;19.40;99.90
4215;DHT22;2121;48.062;7.850;2023-08-07T10:46:53;19.50;99.90
4215;DHT22;2121;48.062;7.850;2023-08-07T10:52:14;20.70;99.90
4215;DHT22;2121;48.062;7.850;2023-08-07T10:54:50;20.30;99.90
4215;DHT22;2121;48.062;7.850;2023-08-07T10:57:18;20.40;99.90
4215;DHT22;2121;48.062;7.850;2023-08-07T10:59:48;21.00;99.90
4215;DHT22;2121;48.062;7.850;2023-08-07T11:02:26;21.20;99.90
4215;DHT22;2121;48.062;7.850;2023-08-07T11:04:55;21.10;99.90
4215;DHT22;2121;48.062;7.850;2023-08-07T11:07:29;20.20;99.90
4215;DHT22;2121;48.062;7.850;2023-08-07T11:09:56;19.80;99.90
4215;DHT22;2121;48.062;7.850;2023-08-07T11:12:26;19.70;99.90
4215;DHT22;2121;48.062;7.850;2023-08-07T11:14:53;19.90;99.90
4215;DHT22;2121;48.062;7.850;2023-08-07T11:17:26;20.00;99.90
4215;DHT22;2121;48.062;7.850;2023-08-07T11:19:53;20.10;99.90
4215;DHT22;2121;48.062;7.850;2023-08-07T11:22:22;20.10;99.50
4215;DHT22;2121;48.062;7.850;2023-08-07T11:24:50;20.30;99.90
4215;DHT22;2121;48.062;7.850;2023-08-07T11:27:16;20.30;99.90
4215;DHT22;2121;48.062;7.850;2023-08-07T11:29:47;20.40;99.90
4215;DHT22;2121;48.062;7.850;2023-08-07T11:32:14;21.20;99.90
4215;DHT22;2121;48.062;7.850;2023-08-07T11:34:40;21.10;98.50
4215;DHT22;2121;48.062;7.850;2023-08-07T11:37:05;21.00;98.60
4215;DHT22;2121;48.062;7.850;2023-08-07T11:39:31;20.80;98.50
4215;DHT22;2121;48.062;7.850;2023-08-07T11:41:57;20.30;98.60
4215;DHT22;2121;48.062;7.850;2023-08-07T11:44:23;19.90;99.00
4215;DHT22;2121;48.062;7.850;2023-08-07T11:46:50;19.60;98.70
4215;DHT22;2121;48.062;7.850;2023-08-07T11:49:16;19.40;99.90
4215;DHT22;2121;48.062;7.850;2023-08-07T11:51:43;19.30;99.90
4215;DHT22;2121;48.062;7.850;2023-08-07T11:54:14;19.50;99.90
4215;DHT22;2121;48.062;7.850;2023-08-07T11:56:41;20.10;99.90
4215;DHT22;2121;48.062;7.850;2023-08-07T11:59:08;20.60;99.90
4215;DHT22;2121;48.062;7.850;2023-08-07T12:01:37;20.90;99.90
4215;DHT22;2121;48.062;7.850;2023-08-07T12:06:33;21.50;97.90
4215;DHT22;2121;48.062;7.850;2023-08-07T12:09:01;21.30;97.90
4215;DHT22;2121;48.062;7.850;2023-08-07T12:11:29;21.30;97.10
4215;DHT22;2121;48.062;7.850;2023-08-07T12:13:55;21.70;97.60
4215;DHT22;2121;48.062;7.850;2023-08-07T12:16:21;21.90;96.50
4215;DHT22;2121;48.062;7.850;2023-08-07T12:18:49;21.70;95.30
4215;DHT22;2121;48.062;7.850;2023-08-07T12:21:18;21.80;96.20
4215;DHT22;2121;48.062;7.850;2023-08-07T12:23:46;21.60;95.70
4215;DHT22;2121;48.062;7.850;2023-08-07T12:26:15;21.90;95.40
4215;DHT22;2121;48.062;7.850;2023-08-07T12:28:42;22.40;95.40
4215;DHT22;2121;48.062;7.850;2023-08-07T12:31:08;23.90;93.50
4215;DHT22;2121;48.062;7.850;2023-08-07T12:33:34;24.40;92.50
4215;DHT22;2121;48.062;7.850;2023-08-07T12:36:00;23.70;92.10
4215;DHT22;2121;48.062;7.850;2023-08-07T12:38:27;23.10;93.50
4215;DHT22;2121;48.062;7.850;2023-08-07T12:40:53;22.50;93.20
4215;DHT22;2121;48.062;7.850;2023-08-07T12:43:19;22.80;93.60
4215;DHT22;2121;48.062;7.850;2023-08-07T12:45:46;23.00;91.30
4215;DHT22;2121;48.062;7.850;2023-08-07T12:48:11;22.70;91.50
4215;DHT22;2121;48.062;7.850;2023-08-07T12:50:38;22.10;92.50
4215;DHT22;2121;48.062;7.850;2023-08-07T12:53:05;23.40;93.60
4215;DHT22;2121;48.062;7.850;2023-08-07T12:55:31;26.60;90.40
4215;DHT22;2121;48.062;7.850;2023-08-07T12:57:57;27.80;86.70
4215;DHT22;2121;48.062;7.850;2023-08-07T13:00:23;29.40;85.20
4215;DHT22;2121;48.062;7.850;2023-08-07T13:02:51;30.40;82.20
4215;DHT22;2121;48.062;7.850;2023-08-07T13:05:18;29.30;79.10
4215;DHT22;2121;48.062;7.850;2023-08-07T13:07:47;27.90;79.80
4215;DHT22;2121;48.062;7.850;2023-08-07T13:10:17;26.10;84.30
4215;DHT22;2121;48.062;7.850;2023-08-07T13:12:44;24.70;82.90
4215;DHT22;2121;48.062;7.850;2023-08-07T13:15:14;23.40;84.40
4215;DHT22;2121;48.062;7.850;2023-08-07T13:17:41;24.00;87.50
4215;DHT22;2121;48.062;7.850;2023-08-07T13:20:08;26.90;83.60
4215;DHT22;2121;48.062;7.850;2023-08-07T13:22:38;27.00;79.30
4215;DHT22;2121;48.062;7.850;2023-08-07T13:25:05;26.50;80.30
4215;DHT22;2121;48.062;7.850;2023-08-07T13:27:33;26.00;81.30
4215;DHT22;2121;48.062;7.850;2023-08-07T13:29:59;26.10;80.60
4215;DHT22;2121;48.062;7.850;2023-08-07T13:32:26;24.60;81.40
4215;DHT22;2121;48.062;7.850;2023-08-07T13:34:52;23.10;83.90
4215;DHT22;2121;48.062;7.850;2023-08-07T13:37:18;22.30;86.80
4215;DHT22;2121;48.062;7.850;2023-08-07T13:39:44;21.60;88.00
4215;DHT22;2121;48.062;7.850;2023-08-07T13:42:09;22.30;89.20
4215;DHT22;2121;48.062;7.850;2023-08-07T13:44:36;22.70;86.10
4215;DHT22;2121;48.062;7.850;2023-08-07T13:47:04;22.10;85.00
4215;DHT22;2121;48.062;7.850;2023-08-07T13:49:30;21.90;86.60
4215;DHT22;2121;48.062;7.850;2023-08-07T13:51:55;23.40;90.10
4215;DHT22;2121;48.062;7.850;2023-08-07T13:54:21;25.20;88.80
4215;DHT22;2121;48.062;7.850;2023-08-07T13:56:48;25.80;87.60
4215;DHT22;2121;48.062;7.850;2023-08-07T13:59:13;24.80;87.10
4215;DHT22;2121;48.062;7.850;2023-08-07T14:01:39;23.90;90.10
4215;DHT22;2121;48.062;7.850;2023-08-07T14:04:05;23.10;92.10
4215;DHT22;2121;48.062;7.850;2023-08-07T14:06:31;22.90;91.90
4215;DHT22;2121;48.062;7.850;2023-08-07T14:08:56;22.80;92.10
4215;DHT22;2121;48.062;7.850;2023-08-07T14:11:22;23.70;91.90
4215;DHT22;2121;48.062;7.850;2023-08-07T14:13:53;23.90;91.90
4215;DHT22;2121;48.062;7.850;2023-08-07T14:16:18;23.80;90.00
4215;DHT22;2121;48.062;7.850;2023-08-07T14:18:44;23.90;91.50
4215;DHT22;2121;48.062;7.850;2023-08-07T14:21:10;26.80;87.20
4215;DHT22;2121;48.062;7.850;2023-08-07T14:23:35;29.20;79.30
4215;DHT22;2121;48.062;7.850;2023-08-07T14:26:01;28.30;80.40
4215;DHT22;2121;48.062;7.850;2023-08-07T14:28:27;27.40;83.10
4215;DHT22;2121;48.062;7.850;2023-08-07T14:30:56;26.50;84.40
4215;DHT22;2121;48.062;7.850;2023-08-07T14:33:23;29.80;85.00
4215;DHT22;2121;48.062;7.850;2023-08-07T14:35:49;34.30;75.90
4215;DHT22;2121;48.062;7.850;2023-08-07T14:38:15;35.40;69.60
4215;DHT22;2121;48.062;7.850;2023-08-07T14:40:40;37.40;66.30
4215;DHT22;2121;48.062;7.850;2023-08-07T14:43:07;33.70;65.60
4215;DHT22;2121;48.062;7.850;2023-08-07T14:45:32;33.40;68.30
4215;DHT22;2121;48.062;7.850;2023-08-07T14:47:58;32.60;66.20
4215;DHT22;2121;48.062;7.850;2023-08-07T14:50:24;32.80;67.80
4215;DHT22;2121;48.062;7.850;2023-08-07T14:52:50;35.00;66.20
4215;DHT22;2121;48.062;7.850;2023-08-07T14:55:15;33.20;64.20
4215;DHT22;2121;48.062;7.850;2023-08-07T14:57:42;33.00;64.80
4215;DHT22;2121;48.062;7.850;2023-08-07T15:00:08;32.20;65.30
4215;DHT22;2121;48.062;7.850;2023-08-07T15:02:34;30.40;67.50
4215;DHT22;2121;48.062;7.850;2023-08-07T15:05:00;27.90;69.50
4215;DHT22;2121;48.062;7.850;2023-08-07T15:07:26;26.50;72.20
4215;DHT22;2121;48.062;7.850;2023-08-07T15:09:51;25.50;75.80
4215;DHT22;2121;48.062;7.850;2023-08-07T15:12:17;24.10;75.50
4215;DHT22;2121;48.062;7.850;2023-08-07T15:14:43;23.50;78.10
4215;DHT22;2121;48.062;7.850;2023-08-07T15:17:09;22.60;78.60
4215;DHT22;2121;48.062;7.850;2023-08-07T15:19:34;22.30;80.50
4215;DHT22;2121;48.062;7.850;2023-08-07T15:22:00;22.10;82.00
4215;DHT22;2121;48.062;7.850;2023-08-07T15:24:26;21.90;81.30
4215;DHT22;2121;48.062;7.850;2023-08-07T15:26:51;21.70;82.80
4215;DHT22;2121;48.062;7.850;2023-08-07T15:29:17;21.80;82.80
4215;DHT22;2121;48.062;7.850;2023-08-07T15:31:43;22.00;81.50
4215;DHT22;2121;48.062;7.850;2023-08-07T15:34:08;22.00;82.90
4215;DHT22;2121;48.062;7.850;2023-08-07T15:36:34;21.90;83.70
4215;DHT22;2121;48.062;7.850;2023-08-07T15:39:00;22.10;84.00
4215;DHT22;2121;48.062;7.850;2023-08-07T15:41:26;21.90;84.80
4215;DHT22;2121;48.062;7.850;2023-08-07T15:43:51;22.30;84.60
4215;DHT22;2121;48.062;7.850;2023-08-07T15:46:17;22.70;83.60
4215;DHT22;2121;48.062;7.850;2023-08-07T15:48:43;22.40;83.20
4215;DHT22;2121;48.062;7.850;2023-08-07T15:51:09;22.50;84.00
4215;DHT22;2121;48.062;7.850;2023-08-07T15:53:35;22.50;83.80
4215;DHT22;2121;48.062;7.850;2023-08-07T15:56:01;21.90;84.70
4215;DHT22;2121;48.062;7.850;2023-08-07T15:58:27;21.50;85.90
4215;DHT22;2121;48.062;7.850;2023-08-07T16:00:53;21.50;87.70
4215;DHT22;2121;48.062;7.850;2023-08-07T16:03:19;21.20;87.40
4215;DHT22;2121;48.062;7.850;2023-08-07T16:05:47;21.10;88.40
4215;DHT22;2121;48.062;7.850;2023-08-07T16:08:14;21.40;87.00
4215;DHT22;2121;48.062;7.850;2023-08-07T16:10:40;21.30;87.80
4215;DHT22;2121;48.062;7.850;2023-08-07T16:13:06;21.30;87.30